createdAt,value
2023-05-04T00:00:20.830Z,627.00
2023-05-04T00:01:20.825Z,626.00
2023-05-04T00:02:20.815Z,625.00
2023-05-04T00:03:20.951Z,627.00
2023-05-04T00:04:20.825Z,628.00
2023-05-04T00:05:20.785Z,629.00
2023-05-04T00:06:20.846Z,630.00
2023-05-04T00:07:20.762Z,633.00
2023-05-04T00:08:20.784Z,635.00
2023-05-04T00:09:20.765Z,633.00
2023-05-04T00:10:20.749Z,631.00
2023-05-04T00:11:20.746Z,630.00
2023-05-04T00:12:20.745Z,630.00
2023-05-04T00:13:20.758Z,631.00
2023-05-04T00:14:20.723Z,632.00
2023-05-04T00:15:20.711Z,633.00
2023-05-04T00:16:20.744Z,633.00
2023-05-04T00:17:20.712Z,631.00
2023-05-04T00:18:20.688Z,629.00
2023-05-04T00:19:20.683Z,632.00
2023-05-04T00:20:20.680Z,632.00
2023-05-04T00:21:20.659Z,630.00
2023-05-04T00:22:20.668Z,631.00
2023-05-04T00:23:20.662Z,632.00
2023-05-04T00:24:20.665Z,629.00
2023-05-04T00:25:20.678Z,629.00
2023-05-04T00:26:20.701Z,629.00
2023-05-04T00:27:20.722Z,630.00
2023-05-04T00:28:20.750Z,630.00
2023-05-04T00:29:20.786Z,630.00
2023-05-04T00:30:20.774Z,629.00
2023-05-04T00:31:20.849Z,629.00
2023-05-04T00:32:21.687Z,629.00
2023-05-04T00:33:20.853Z,626.00
2023-05-04T00:34:20.853Z,625.00
2023-05-04T00:35:20.871Z,624.00
2023-05-04T00:36:20.892Z,625.00
2023-05-04T00:37:20.906Z,624.00
2023-05-04T00:38:20.927Z,628.00
2023-05-04T00:39:20.955Z,627.00
2023-05-04T00:40:20.964Z,625.00
2023-05-04T00:41:20.983Z,625.00
2023-05-04T00:42:21.006Z,624.00
2023-05-04T00:43:21.024Z,624.00
2023-05-04T00:44:21.049Z,620.00
2023-05-04T00:45:21.114Z,620.00
2023-05-04T00:46:21.092Z,618.00
2023-05-04T00:47:21.171Z,616.00
2023-05-04T00:48:21.141Z,615.00
2023-05-04T00:49:21.155Z,617.00
2023-05-04T00:50:21.165Z,622.00
2023-05-04T00:51:21.204Z,622.00
2023-05-04T00:52:21.214Z,622.00
2023-05-04T00:53:21.249Z,625.00
2023-05-04T00:54:21.262Z,625.00
2023-05-04T00:55:21.294Z,624.00
2023-05-04T00:56:21.311Z,622.00
2023-05-04T00:57:21.375Z,622.00
2023-05-04T00:58:21.359Z,624.00
2023-05-04T00:59:21.381Z,624.00
2023-05-04T01:00:21.392Z,624.00
2023-05-04T01:01:21.479Z,623.00
2023-05-04T01:02:21.430Z,622.00
2023-05-04T01:03:21.513Z,619.00
2023-05-04T01:04:21.489Z,618.00
2023-05-04T01:05:21.522Z,619.00
2023-05-04T01:06:21.530Z,620.00
2023-05-04T01:07:21.555Z,619.00
2023-05-04T01:08:21.587Z,620.00
2023-05-04T01:09:21.610Z,622.00
2023-05-04T01:10:21.624Z,623.00
2023-05-04T01:11:21.652Z,624.00
2023-05-04T01:12:21.678Z,626.00
2023-05-04T01:13:21.700Z,625.00
2023-05-04T01:14:21.712Z,625.00
2023-05-04T01:15:21.734Z,626.00
2023-05-04T01:16:21.773Z,627.00
2023-05-04T01:17:21.908Z,630.00
2023-05-04T01:18:21.803Z,631.00
2023-05-04T01:19:21.822Z,630.00
2023-05-04T01:20:21.838Z,627.00
2023-05-04T01:21:21.857Z,625.00
2023-05-04T01:22:21.885Z,625.00
2023-05-04T01:23:21.899Z,625.00
2023-05-04T01:24:21.919Z,625.00
2023-05-04T01:25:21.945Z,622.00
2023-05-04T01:26:21.970Z,623.00
2023-05-04T01:27:22.029Z,622.00
2023-05-04T01:28:22.009Z,620.00
2023-05-04T01:29:22.042Z,619.00
2023-05-04T01:30:22.061Z,620.00
2023-05-04T01:31:22.182Z,620.00
2023-05-04T01:32:22.231Z,623.00
2023-05-04T01:33:22.157Z,624.00
2023-05-04T01:34:22.143Z,623.00
2023-05-04T01:35:22.162Z,625.00
2023-05-04T01:36:22.217Z,625.00
2023-05-04T01:37:22.213Z,623.00
2023-05-04T01:38:22.234Z,625.00
2023-05-04T01:39:22.261Z,627.00
2023-05-04T01:40:22.294Z,627.00
2023-05-04T01:41:22.310Z,627.00
2023-05-04T01:42:22.338Z,629.00
2023-05-04T01:43:22.371Z,626.00
2023-05-04T01:44:22.424Z,623.00
2023-05-04T01:45:22.415Z,620.00
2023-05-04T01:46:22.518Z,619.00
2023-05-04T01:47:22.502Z,618.00
2023-05-04T01:48:22.499Z,616.00
2023-05-04T01:49:22.542Z,617.00
2023-05-04T01:50:22.558Z,619.00
2023-05-04T01:51:22.574Z,621.00
2023-05-04T01:52:22.623Z,617.00
2023-05-04T01:53:22.628Z,618.00
2023-05-04T01:54:22.663Z,615.00
2023-05-04T01:55:22.706Z,615.00
2023-05-04T01:56:22.721Z,614.00
2023-05-04T01:57:22.745Z,613.00
2023-05-04T01:58:22.765Z,614.00
2023-05-04T01:59:22.798Z,615.00
2023-05-04T02:00:22.824Z,617.00
2023-05-04T02:01:22.883Z,620.00
2023-05-04T02:02:22.873Z,620.00
2023-05-04T02:03:22.988Z,621.00
2023-05-04T02:04:22.924Z,619.00
2023-05-04T02:05:22.998Z,616.00
2023-05-04T02:06:22.982Z,615.00
2023-05-04T02:07:23.004Z,614.00
2023-05-04T02:08:23.025Z,613.00
2023-05-04T02:09:23.070Z,614.00
2023-05-04T02:10:23.077Z,613.00
2023-05-04T02:11:23.104Z,616.00
2023-05-04T02:12:23.137Z,616.00
2023-05-04T02:13:23.162Z,614.00
2023-05-04T02:14:23.202Z,613.00
2023-05-04T02:15:23.218Z,612.00
2023-05-04T02:16:23.304Z,614.00
2023-05-04T02:17:23.329Z,614.00
2023-05-04T02:18:23.304Z,612.00
2023-05-04T02:19:23.335Z,610.00
2023-05-04T02:20:23.372Z,611.00
2023-05-04T02:21:23.441Z,611.00
2023-05-04T02:22:23.417Z,616.00
2023-05-04T02:23:23.439Z,616.00
2023-05-04T02:24:23.471Z,614.00
2023-05-04T02:25:23.498Z,613.00
2023-05-04T02:26:23.534Z,615.00
2023-05-04T02:27:23.573Z,613.00
2023-05-04T02:28:23.627Z,615.00
2023-05-04T02:29:23.603Z,616.00
2023-05-04T02:30:23.636Z,614.00
2023-05-04T02:31:23.690Z,614.00
2023-05-04T02:32:23.747Z,614.00
2023-05-04T02:33:23.750Z,615.00
2023-05-04T02:34:23.763Z,616.00
2023-05-04T02:35:23.789Z,616.00
2023-05-04T02:36:23.825Z,615.00
2023-05-04T02:37:23.892Z,614.00
2023-05-04T02:38:23.884Z,614.00
2023-05-04T02:39:23.923Z,615.00
2023-05-04T02:40:23.952Z,617.00
2023-05-04T02:41:23.991Z,616.00
2023-05-04T02:42:24.014Z,617.00
2023-05-04T02:43:24.048Z,616.00
2023-05-04T02:44:24.074Z,617.00
2023-05-04T02:45:24.210Z,617.00
2023-05-04T02:46:24.206Z,621.00
2023-05-04T02:47:24.194Z,622.00
2023-05-04T02:48:24.194Z,622.00
2023-05-04T02:49:24.310Z,622.00
2023-05-04T02:50:24.308Z,621.00
2023-05-04T02:51:24.321Z,623.00
2023-05-04T02:52:24.318Z,621.00
2023-05-04T02:53:24.381Z,622.00
2023-05-04T02:54:24.356Z,620.00
2023-05-04T02:55:24.393Z,620.00
2023-05-04T02:56:24.482Z,621.00
2023-05-04T02:57:24.458Z,619.00
2023-05-04T02:58:24.479Z,620.00
2023-05-04T02:59:24.520Z,619.00
2023-05-04T03:00:24.568Z,620.00
2023-05-04T03:01:24.591Z,620.00
2023-05-04T03:02:24.643Z,617.00
2023-05-04T03:03:24.633Z,616.00
2023-05-04T03:04:24.717Z,615.00
2023-05-04T03:05:24.696Z,616.00
2023-05-04T03:06:24.734Z,616.00
2023-05-04T03:07:24.775Z,616.00
2023-05-04T03:08:24.804Z,616.00
2023-05-04T03:09:24.845Z,614.00
2023-05-04T03:10:24.856Z,616.00
2023-05-04T03:11:24.882Z,617.00
2023-05-04T03:12:24.929Z,618.00
2023-05-04T03:13:24.950Z,616.00
2023-05-04T03:14:24.973Z,617.00
2023-05-04T03:15:25.009Z,617.00
2023-05-04T03:16:25.080Z,616.00
2023-05-04T03:17:25.084Z,615.00
2023-05-04T03:18:25.152Z,611.00
2023-05-04T03:19:25.160Z,608.00
2023-05-04T03:20:25.199Z,607.00
2023-05-04T03:21:25.223Z,609.00
2023-05-04T03:22:25.262Z,608.00
2023-05-04T03:23:25.302Z,607.00
2023-05-04T03:24:25.340Z,607.00
2023-05-04T03:25:25.398Z,606.00
2023-05-04T03:26:25.429Z,606.00
2023-05-04T03:27:25.448Z,608.00
2023-05-04T03:28:25.483Z,611.00
2023-05-04T03:29:25.510Z,614.00
2023-05-04T03:30:25.544Z,614.00
2023-05-04T03:31:25.589Z,614.00
2023-05-04T03:32:25.665Z,612.00
2023-05-04T03:33:25.661Z,612.00
2023-05-04T03:34:25.695Z,613.00
2023-05-04T03:35:25.721Z,612.00
2023-05-04T03:36:25.764Z,610.00
2023-05-04T03:37:25.808Z,608.00
2023-05-04T03:38:25.838Z,608.00
2023-05-04T03:39:25.876Z,610.00
2023-05-04T03:40:25.913Z,611.00
2023-05-04T03:41:26.007Z,612.00
2023-05-04T03:42:25.983Z,614.00
2023-05-04T03:43:26.035Z,620.00
2023-05-04T03:44:26.058Z,621.00
2023-05-04T03:45:26.756Z,623.00
2023-05-04T03:46:26.224Z,621.00
2023-05-04T03:47:26.221Z,619.00
2023-05-04T03:48:26.195Z,616.00
2023-05-04T03:49:26.239Z,615.00
2023-05-04T03:50:26.286Z,614.00
2023-05-04T03:51:26.306Z,613.00
2023-05-04T03:52:26.350Z,612.00
2023-05-04T03:53:26.378Z,610.00
2023-05-04T03:54:26.417Z,608.00
2023-05-04T03:55:26.448Z,609.00
2023-05-04T03:56:26.492Z,607.00
2023-05-04T03:57:26.551Z,609.00
2023-05-04T03:58:26.565Z,609.00
2023-05-04T03:59:26.597Z,612.00
2023-05-04T04:00:26.632Z,612.00
2023-05-04T04:01:26.680Z,611.00
2023-05-04T04:02:26.942Z,613.00
2023-05-04T04:03:26.941Z,615.00
2023-05-04T04:04:26.810Z,614.00
2023-05-04T04:05:26.822Z,614.00
2023-05-04T04:06:26.857Z,613.00
2023-05-04T04:07:26.899Z,614.00
2023-05-04T04:08:26.934Z,614.00
2023-05-04T04:09:26.973Z,614.00
2023-05-04T04:10:27.006Z,612.00
2023-05-04T04:11:27.052Z,614.00
2023-05-04T04:12:27.085Z,615.00
2023-05-04T04:13:27.144Z,614.00
2023-05-04T04:14:27.164Z,617.00
2023-05-04T04:15:27.197Z,616.00
2023-05-04T04:16:27.265Z,616.00
2023-05-04T04:17:27.294Z,615.00
2023-05-04T04:18:27.339Z,613.00
2023-05-04T04:19:27.374Z,611.00
2023-05-04T04:20:27.402Z,611.00
2023-05-04T04:21:27.431Z,611.00
2023-05-04T04:22:27.473Z,610.00
2023-05-04T04:23:27.504Z,612.00
2023-05-04T04:24:27.537Z,611.00
2023-05-04T04:25:27.587Z,611.00
2023-05-04T04:26:27.612Z,611.00
2023-05-04T04:27:27.714Z,609.00
2023-05-04T04:28:27.673Z,609.00
2023-05-04T04:29:27.753Z,612.00
2023-05-04T04:30:27.769Z,612.00
2023-05-04T04:31:27.851Z,608.00
2023-05-04T04:32:27.892Z,608.00
2023-05-04T04:33:27.873Z,610.00
2023-05-04T04:34:27.945Z,609.00
2023-05-04T04:35:27.983Z,611.00
2023-05-04T04:36:27.998Z,613.00
2023-05-04T04:37:28.031Z,616.00
2023-05-04T04:38:28.069Z,615.00
2023-05-04T04:39:28.174Z,615.00
2023-05-04T04:40:28.176Z,614.00
2023-05-04T04:41:28.193Z,615.00
2023-05-04T04:42:28.240Z,617.00
2023-05-04T04:43:28.280Z,615.00
2023-05-04T04:44:28.340Z,614.00
2023-05-04T04:45:28.462Z,613.00
2023-05-04T04:46:28.433Z,611.00
2023-05-04T04:47:28.520Z,609.00
2023-05-04T04:48:28.521Z,607.00
2023-05-04T04:49:28.542Z,607.00
2023-05-04T04:50:28.584Z,608.00
2023-05-04T04:51:28.628Z,607.00
2023-05-04T04:52:28.667Z,605.00
2023-05-04T04:53:28.738Z,606.00
2023-05-04T04:54:28.751Z,606.00
2023-05-04T04:55:28.793Z,606.00
2023-05-04T04:56:28.833Z,606.00
2023-05-04T04:57:31.232Z,607.00
2023-05-04T04:58:28.876Z,609.00
2023-05-04T04:59:28.865Z,611.00
2023-05-04T05:00:28.888Z,608.00
2023-05-04T05:01:29.013Z,608.00
2023-05-04T05:02:28.878Z,608.00
2023-05-04T05:03:28.840Z,604.00
2023-05-04T05:04:28.853Z,603.00
2023-05-04T05:05:31.597Z,602.00
2023-05-04T05:06:28.814Z,603.00
2023-05-04T05:07:28.807Z,603.00
2023-05-04T05:08:28.804Z,606.00
2023-05-04T05:09:28.798Z,607.00
2023-05-04T05:10:28.778Z,608.00
2023-05-04T05:11:28.778Z,608.00
2023-05-04T05:12:28.791Z,610.00
2023-05-04T05:13:28.756Z,611.00
2023-05-04T05:14:28.759Z,611.00
2023-05-04T05:15:28.766Z,609.00
2023-05-04T05:16:28.781Z,605.00
2023-05-04T05:17:28.861Z,605.00
2023-05-04T05:18:28.729Z,604.00
2023-05-04T05:19:28.726Z,605.00
2023-05-04T05:20:28.728Z,603.00
2023-05-04T05:21:28.710Z,604.00
2023-05-04T05:22:28.810Z,603.00
2023-05-04T05:23:28.706Z,605.00
2023-05-04T05:24:28.688Z,606.00
2023-05-04T05:25:28.678Z,603.00
2023-05-04T05:26:28.667Z,604.00
2023-05-04T05:27:28.665Z,605.00
2023-05-04T05:28:28.831Z,604.00
2023-05-04T05:29:28.678Z,605.00
2023-05-04T05:30:28.662Z,605.00
2023-05-04T05:31:28.671Z,603.00
2023-05-04T05:32:28.642Z,606.00
2023-05-04T05:33:28.730Z,608.00
2023-05-04T05:34:28.617Z,608.00
2023-05-04T05:35:28.606Z,608.00
2023-05-04T05:36:28.601Z,610.00
2023-05-04T05:37:29.842Z,609.00
2023-05-04T05:38:28.682Z,609.00
2023-05-04T05:39:28.769Z,609.00
2023-05-04T05:40:28.764Z,609.00
2023-05-04T05:41:28.832Z,613.00
2023-05-04T05:42:28.880Z,623.00
2023-05-04T05:43:29.305Z,660.00
2023-05-04T05:44:29.982Z,684.00
2023-05-04T05:45:29.032Z,676.00
2023-05-04T05:46:29.115Z,673.00
2023-05-04T05:47:29.182Z,673.00
2023-05-04T05:48:30.005Z,674.00
2023-05-04T05:49:29.239Z,677.00
2023-05-04T05:50:36.688Z,681.00
2023-05-04T05:51:29.235Z,685.00
2023-05-04T05:52:32.510Z,691.00
2023-05-04T05:53:29.349Z,701.00
2023-05-04T05:54:30.348Z,710.00
2023-05-04T05:55:29.330Z,729.00
2023-05-04T05:56:44.779Z,740.00
2023-05-04T05:57:36.622Z,749.00
2023-05-04T05:58:29.183Z,765.00
2023-05-04T05:59:29.153Z,780.00
2023-05-04T06:00:29.308Z,788.00
2023-05-04T06:01:29.155Z,796.00
2023-05-04T06:02:45.114Z,803.00
2023-05-04T06:03:36.694Z,806.00
2023-05-04T06:04:29.402Z,807.00
2023-05-04T06:05:29.142Z,805.00
2023-05-04T06:07:36.515Z,808.00
2023-05-04T06:08:29.424Z,808.00
2023-05-04T06:09:29.094Z,807.00
2023-05-04T06:10:29.133Z,810.00
2023-05-04T06:11:29.075Z,810.00
2023-05-04T06:12:29.328Z,813.00
2023-05-04T06:13:29.246Z,815.00
2023-05-04T06:14:30.448Z,815.00
2023-05-04T06:15:29.049Z,812.00
2023-05-04T06:16:29.066Z,815.00
2023-05-04T06:17:29.178Z,816.00
2023-05-04T06:18:29.119Z,817.00
2023-05-04T06:19:32.385Z,820.00
2023-05-04T06:20:29.125Z,821.00
2023-05-04T06:21:29.084Z,818.00
2023-05-04T06:22:29.319Z,818.00
2023-05-04T06:23:29.078Z,815.00
2023-05-04T06:24:29.069Z,813.00
2023-05-04T06:25:29.068Z,815.00
2023-05-04T06:26:29.047Z,815.00
2023-05-04T06:27:29.037Z,814.00
2023-05-04T06:28:29.042Z,812.00
2023-05-04T06:29:29.027Z,814.00
2023-05-04T06:30:29.092Z,812.00
2023-05-04T06:31:29.015Z,813.00
2023-05-04T06:32:32.549Z,808.00
2023-05-04T06:33:32.185Z,806.00
2023-05-04T06:34:28.985Z,807.00
2023-05-04T06:35:32.304Z,806.00
2023-05-04T06:36:28.977Z,802.00
2023-05-04T06:37:29.326Z,800.00
2023-05-04T06:38:32.328Z,798.00
2023-05-04T06:39:28.960Z,797.00
2023-05-04T06:40:28.977Z,795.00
2023-05-04T06:41:29.318Z,795.00
2023-05-04T06:42:28.926Z,795.00
2023-05-04T06:43:28.957Z,793.00
2023-05-04T06:44:28.933Z,795.00
2023-05-04T06:45:28.934Z,799.00
2023-05-04T06:46:29.322Z,796.00
2023-05-04T06:47:28.920Z,791.00
2023-05-04T06:48:32.151Z,790.00
2023-05-04T06:49:28.888Z,789.00
2023-05-04T06:50:28.880Z,791.00
2023-05-04T06:51:32.643Z,790.00
2023-05-04T06:52:44.492Z,789.00
2023-05-04T06:53:28.983Z,789.00
2023-05-04T06:54:28.931Z,788.00
2023-05-04T06:55:28.843Z,786.00
2023-05-04T06:56:28.837Z,783.00
2023-05-04T06:57:29.310Z,782.00
2023-05-04T06:58:28.821Z,783.00
2023-05-04T06:59:28.828Z,780.00
2023-05-04T07:00:28.818Z,781.00
2023-05-04T07:01:28.848Z,781.00
2023-05-04T07:02:28.864Z,780.00
2023-05-04T07:03:28.799Z,781.00
2023-05-04T07:04:28.794Z,784.00
2023-05-04T07:05:28.795Z,789.00
2023-05-04T07:06:28.796Z,788.00
2023-05-04T07:07:28.801Z,791.00
2023-05-04T07:08:28.758Z,788.00
2023-05-04T07:09:28.755Z,789.00
2023-05-04T07:10:28.741Z,786.00
2023-05-04T07:11:28.783Z,784.00
2023-05-04T07:12:28.728Z,782.00
2023-05-04T07:13:29.333Z,782.00
2023-05-04T07:14:28.703Z,782.00
2023-05-04T07:15:28.703Z,782.00
2023-05-04T07:16:28.724Z,781.00
2023-05-04T07:17:28.726Z,780.00
2023-05-04T07:18:28.867Z,782.00
2023-05-04T07:19:28.667Z,782.00
2023-05-04T07:20:28.674Z,781.00
2023-05-04T07:21:29.441Z,781.00
2023-05-04T07:22:28.646Z,780.00
2023-05-04T07:23:28.861Z,783.00
2023-05-04T07:24:28.694Z,782.00
2023-05-04T07:25:28.760Z,783.00
2023-05-04T07:26:28.847Z,785.00
2023-05-04T07:27:28.845Z,784.00
2023-05-04T07:28:28.877Z,786.00
2023-05-04T07:29:29.566Z,784.00
2023-05-04T07:30:29.932Z,785.00
2023-05-04T07:31:30.489Z,782.00
2023-05-04T07:33:29.911Z,783.00
2023-05-04T07:34:41.761Z,783.00
2023-05-04T07:35:28.903Z,782.00
2023-05-04T07:36:29.361Z,788.00
2023-05-04T07:37:28.927Z,803.00
2023-05-04T07:38:29.363Z,810.00
2023-05-04T07:39:29.017Z,810.00
2023-05-04T07:40:28.879Z,815.00
2023-05-04T07:41:28.895Z,824.00
2023-05-04T07:42:29.585Z,828.00
2023-05-04T07:43:29.371Z,838.00
2023-05-04T07:44:28.869Z,858.00
2023-05-04T07:45:28.852Z,899.00
2023-05-04T07:46:30.179Z,937.00
2023-05-04T07:47:28.944Z,968.00
2023-05-04T07:48:28.826Z,975.00
2023-05-04T07:49:29.864Z,992.00
2023-05-04T07:50:28.799Z,1011.00
2023-05-04T07:51:28.790Z,1023.00
2023-05-04T07:52:28.781Z,1022.00
2023-05-04T07:53:29.845Z,1028.00
2023-05-04T07:54:28.770Z,1036.00
2023-05-04T07:55:28.833Z,1060.00
2023-05-04T07:56:28.789Z,1077.00
2023-05-04T07:57:28.741Z,1099.00
2023-05-04T07:58:28.844Z,1123.00
2023-05-04T07:59:28.758Z,1131.00
2023-05-04T08:00:28.776Z,1155.00
2023-05-04T08:01:28.823Z,1174.00
2023-05-04T08:02:28.993Z,1194.00
2023-05-04T08:03:29.396Z,1215.00
2023-05-04T08:04:28.970Z,1240.00
2023-05-04T08:05:29.425Z,1265.00
2023-05-04T08:06:29.108Z,1296.00
2023-05-04T08:07:29.988Z,1315.00
2023-05-04T08:08:29.214Z,1325.00
2023-05-04T08:09:29.273Z,1343.00
2023-05-04T08:10:30.345Z,1359.00
2023-05-04T08:11:29.424Z,1377.00
2023-05-04T08:12:29.463Z,1398.00
2023-05-04T08:13:29.525Z,1410.00
2023-05-04T08:14:29.597Z,1424.00
2023-05-04T08:15:29.640Z,1445.00
2023-05-04T08:16:29.693Z,1462.00
2023-05-04T08:17:29.826Z,1488.00
2023-05-04T08:18:29.798Z,1512.00
2023-05-04T08:19:30.847Z,1521.00
2023-05-04T08:20:29.916Z,1542.00
2023-05-04T08:21:30.925Z,1556.00
2023-05-04T08:22:30.423Z,1575.00
2023-05-04T08:23:30.019Z,1591.00
2023-05-04T08:24:30.071Z,1611.00
2023-05-04T08:25:30.123Z,1640.00
2023-05-04T08:26:30.126Z,1676.00
2023-05-04T08:27:30.527Z,1683.00
2023-05-04T08:28:30.241Z,1697.00
2023-05-04T08:29:30.287Z,1712.00
2023-05-04T08:30:30.380Z,1727.00
2023-05-04T08:31:30.390Z,1742.00
2023-05-04T08:32:33.187Z,1757.00
2023-05-04T08:33:30.393Z,1772.00
2023-05-04T08:34:33.639Z,1792.00
2023-05-04T08:35:30.402Z,1814.00
2023-05-04T08:36:30.396Z,1835.00
2023-05-04T08:37:30.501Z,1859.00
2023-05-04T08:38:30.377Z,1880.00
2023-05-04T08:39:30.398Z,1900.00
2023-05-04T08:40:33.570Z,1915.00
2023-05-04T08:41:30.387Z,1938.00
2023-05-04T08:42:30.350Z,1949.00
2023-05-04T08:43:30.416Z,1951.00
2023-05-04T08:44:31.367Z,1968.00
2023-05-04T08:45:30.742Z,1996.00
2023-05-04T08:46:30.314Z,2013.00
2023-05-04T08:47:30.338Z,2023.00
2023-05-04T08:48:30.303Z,2037.00
2023-05-04T08:49:30.389Z,2058.00
2023-05-04T08:50:30.298Z,2080.00
2023-05-04T08:51:30.274Z,2095.00
2023-05-04T08:52:30.280Z,2107.00
2023-05-04T08:53:30.376Z,2119.00
2023-05-04T08:54:30.310Z,2134.00
2023-05-04T08:55:30.336Z,2156.00
2023-05-04T08:56:30.375Z,2174.00
2023-05-04T08:57:30.427Z,2195.00
2023-05-04T08:58:30.880Z,2215.00
2023-05-04T08:59:30.527Z,2245.00
2023-05-04T09:00:30.541Z,2258.00
2023-05-04T09:01:30.646Z,2275.00
2023-05-04T09:02:30.642Z,2284.00
2023-05-04T09:03:30.732Z,2296.00
2023-05-04T09:04:30.688Z,2304.00
2023-05-04T09:05:30.876Z,2317.00
2023-05-04T09:06:30.762Z,2346.00
2023-05-04T09:07:30.790Z,2370.00
2023-05-04T09:08:30.825Z,2389.00
2023-05-04T09:09:30.854Z,2399.00
2023-05-04T09:10:30.899Z,2413.00
2023-05-04T09:11:30.932Z,2436.00
2023-05-04T09:12:31.004Z,2452.00
2023-05-04T09:13:31.014Z,2471.00
2023-05-04T09:14:32.068Z,2480.00
2023-05-04T09:15:31.075Z,2485.00
2023-05-04T09:16:31.120Z,2501.00
2023-05-04T09:17:31.211Z,2519.00
2023-05-04T09:18:31.454Z,2543.00
2023-05-04T09:19:31.225Z,2552.00
2023-05-04T09:20:33.267Z,2569.00
2023-05-04T09:21:31.280Z,2587.00
2023-05-04T09:22:31.240Z,2604.00
2023-05-04T09:23:31.435Z,2632.00
2023-05-04T09:24:31.247Z,2650.00
2023-05-04T09:25:31.238Z,2657.00
2023-05-04T09:26:31.236Z,2671.00
2023-05-04T09:27:31.208Z,2685.00
2023-05-04T09:28:31.439Z,2699.00
2023-05-04T09:29:31.175Z,2714.00
2023-05-04T09:30:31.208Z,2733.00
2023-05-04T09:31:31.180Z,2753.00
2023-05-04T09:32:31.220Z,2770.00
2023-05-04T09:33:31.438Z,2773.00
2023-05-04T09:34:31.142Z,2771.00
2023-05-04T09:35:33.960Z,2770.00
2023-05-04T09:36:46.737Z,2766.00
2023-05-04T09:37:31.113Z,2776.00
2023-05-04T09:38:32.410Z,2792.00
2023-05-04T09:39:31.430Z,2801.00
2023-05-04T09:40:31.107Z,2819.00
2023-05-04T09:41:31.494Z,2850.00
2023-05-04T09:42:31.092Z,2874.00
2023-05-04T09:43:31.086Z,2885.00
2023-05-04T09:44:31.418Z,2903.00
2023-05-04T09:45:31.080Z,2924.00
2023-05-04T09:46:31.197Z,2943.00
2023-05-04T09:47:31.160Z,2959.00
2023-05-04T09:48:31.144Z,2975.00
2023-05-04T09:49:31.199Z,2997.00
2023-05-04T09:50:31.177Z,3018.00
2023-05-04T09:51:31.223Z,3034.00
2023-05-04T09:52:31.229Z,3056.00
2023-05-04T09:53:31.403Z,3074.00
2023-05-04T09:54:31.298Z,3095.00
2023-05-04T09:55:31.312Z,3125.00
2023-05-04T09:56:31.358Z,3140.00
2023-05-04T09:57:31.375Z,3155.00
2023-05-04T09:58:31.431Z,3164.00
2023-05-04T09:59:31.406Z,3176.00
2023-05-04T10:00:31.418Z,3186.00
2023-05-04T10:01:32.522Z,3204.00
2023-05-04T10:02:31.735Z,3225.00
2023-05-04T10:03:31.925Z,3250.00
2023-05-04T10:04:31.928Z,3277.00
2023-05-04T10:05:31.597Z,3301.00
2023-05-04T10:06:31.536Z,3311.00
2023-05-04T10:07:31.575Z,3327.00
2023-05-04T10:08:31.567Z,3343.00
2023-05-04T10:09:32.902Z,3366.00
2023-05-04T10:10:31.602Z,3381.00
2023-05-04T10:11:31.636Z,3401.00
2023-05-04T10:12:31.642Z,3420.00
2023-05-04T10:13:31.654Z,3433.00
2023-05-04T10:14:31.907Z,3438.00
2023-05-04T10:15:31.686Z,3452.00
2023-05-04T10:16:34.963Z,3458.00
2023-05-04T10:17:31.722Z,3470.00
2023-05-04T10:18:31.930Z,3489.00
2023-05-04T10:19:31.667Z,3496.00
2023-05-04T10:20:31.666Z,3503.00
2023-05-04T10:21:31.702Z,3514.00
2023-05-04T10:22:31.909Z,3526.00
2023-05-04T10:23:31.932Z,3541.00
2023-05-04T10:24:31.638Z,3552.00
2023-05-04T10:25:31.633Z,3559.00
2023-05-04T10:26:32.411Z,3573.00
2023-05-04T10:27:31.616Z,3589.00
2023-05-04T10:28:31.942Z,3603.00
2023-05-04T10:29:31.619Z,3613.00
2023-05-04T10:30:31.605Z,3634.00
2023-05-04T10:31:31.633Z,3660.00
2023-05-04T10:32:31.641Z,3677.00
2023-05-04T10:33:32.011Z,3681.00
2023-05-04T10:34:31.626Z,3684.00
2023-05-04T10:35:31.564Z,3690.00
2023-05-04T10:36:31.551Z,3704.00
2023-05-04T10:37:31.913Z,3714.00
2023-05-04T10:38:31.938Z,3723.00
2023-05-04T10:39:31.921Z,3745.00
2023-05-04T10:40:31.535Z,3765.00
2023-05-04T10:41:31.517Z,3772.00
2023-05-04T10:42:31.911Z,3774.00
2023-05-04T10:43:31.500Z,3739.00
2023-05-04T10:44:31.924Z,3678.00
2023-05-04T10:45:31.510Z,3621.00
2023-05-04T10:46:31.489Z,3559.00
2023-05-04T10:47:31.519Z,3565.00
2023-05-04T10:48:31.477Z,3553.00
2023-05-04T10:49:31.941Z,3413.00
2023-05-04T10:50:31.668Z,3421.00
2023-05-04T10:51:42.302Z,3426.00
2023-05-04T10:52:31.455Z,3420.00
2023-05-04T10:53:31.445Z,3397.00
2023-05-04T10:54:31.909Z,3289.00
2023-05-04T10:55:32.408Z,3256.00
2023-05-04T10:56:31.413Z,3140.00
2023-05-04T10:57:31.414Z,3121.00
2023-05-04T10:58:31.395Z,3129.00
2023-05-04T10:59:31.412Z,3126.00
2023-05-04T11:00:31.385Z,3119.00
2023-05-04T11:01:31.429Z,2998.00
2023-05-04T11:02:33.489Z,2945.00
2023-05-04T11:03:31.494Z,2969.00
2023-05-04T11:04:31.363Z,2991.00
2023-05-04T11:05:31.350Z,2988.00
2023-05-04T11:06:31.364Z,2823.00
2023-05-04T11:07:31.484Z,2827.00
2023-05-04T11:08:31.331Z,2817.00
2023-05-04T11:09:31.420Z,2825.00
2023-05-04T11:10:31.310Z,2803.00
2023-05-04T11:11:31.309Z,2825.00
2023-05-04T11:12:31.324Z,2847.00
2023-05-04T11:13:31.297Z,2887.00
2023-05-04T11:14:31.418Z,2893.00
2023-05-04T11:15:31.279Z,2891.00
2023-05-04T11:16:31.324Z,2891.00
2023-05-04T11:17:31.296Z,2886.00
2023-05-04T11:18:31.258Z,2880.00
2023-05-04T11:19:31.425Z,2874.00
2023-05-04T11:20:31.238Z,2864.00
2023-05-04T11:21:31.235Z,2853.00
2023-05-04T11:22:31.265Z,2847.00
2023-05-04T11:23:31.217Z,2846.00
2023-05-04T11:24:31.439Z,2847.00
2023-05-04T11:25:31.215Z,2845.00
2023-05-04T11:26:31.203Z,2847.00
2023-05-04T11:27:31.186Z,2850.00
2023-05-04T11:28:31.209Z,2853.00
2023-05-04T11:29:31.550Z,2855.00
2023-05-04T11:30:31.354Z,2856.00
2023-05-04T11:31:31.206Z,2857.00
2023-05-04T11:32:31.190Z,2860.00
2023-05-04T11:33:31.143Z,2862.00
2023-05-04T11:34:31.454Z,2865.00
2023-05-04T11:35:31.125Z,2865.00
2023-05-04T11:36:31.136Z,2867.00
2023-05-04T11:37:31.118Z,2865.00
2023-05-04T11:38:31.139Z,2867.00
2023-05-04T11:39:31.428Z,2865.00
2023-05-04T11:40:31.130Z,2868.00
2023-05-04T11:41:31.086Z,2869.00
2023-05-04T11:42:31.086Z,2871.00
2023-05-04T11:43:31.127Z,2872.00
2023-05-04T11:44:31.169Z,2873.00
2023-05-04T11:45:31.181Z,2869.00
2023-05-04T11:46:31.265Z,2868.00
2023-05-04T11:47:31.355Z,2867.00
2023-05-04T11:48:31.330Z,2861.00
2023-05-04T11:49:31.383Z,2854.00
2023-05-04T11:50:31.423Z,2852.00
2023-05-04T11:51:31.463Z,2852.00
2023-05-04T11:52:31.522Z,2849.00
2023-05-04T11:53:31.577Z,2848.00
2023-05-04T11:54:31.693Z,2844.00
2023-05-04T11:55:31.653Z,2845.00
2023-05-04T11:56:31.698Z,2847.00
2023-05-04T11:57:31.760Z,2848.00
2023-05-04T11:58:31.808Z,2848.00
2023-05-04T11:59:31.864Z,2846.00
2023-05-04T12:00:31.895Z,2847.00
2023-05-04T12:01:31.956Z,2847.00
2023-05-04T12:02:32.154Z,2847.00
2023-05-04T12:03:43.912Z,2846.00
2023-05-04T12:04:32.040Z,2845.00
2023-05-04T12:05:32.040Z,2842.00
2023-05-04T12:06:32.033Z,2839.00
2023-05-04T12:07:32.024Z,2837.00
2023-05-04T12:08:32.463Z,2836.00
2023-05-04T12:09:32.481Z,2836.00
2023-05-04T12:10:39.427Z,2832.00
2023-05-04T12:11:32.451Z,2829.00
2023-05-04T12:12:33.378Z,2830.00
2023-05-04T12:13:32.027Z,2828.00
2023-05-04T12:14:32.442Z,2831.00
2023-05-04T12:15:32.449Z,2825.00
2023-05-04T12:16:32.196Z,2822.00
2023-05-04T12:17:32.237Z,2819.00
2023-05-04T12:18:32.244Z,2821.00
2023-05-04T12:19:32.301Z,2817.00
2023-05-04T12:20:32.363Z,2809.00
2023-05-04T12:21:32.406Z,2800.00